KENV

Wendover Airport

Wendover, Utah, USA
METAR KENV 141256Z AUTO 00000KT 10SM CLR 22/04 A3001 RMK AO2 SLP113 T02170044
Observed Flight Rules
Aug-14 @ 12:56 UTC (47 minutes ago) Visual Flight Rules
Visibility Clouds
10 miles
  • Clear skies
Temperatures Readings
Current 22°C / 72°F
Dewpoint 4°C / 39°F
Humidity 31%
Altimeter 30.01" Hg
Pressure 1011.3 hPa
Elevation 1292
METAR KENV 141256Z AUTO 00000KT 10SM CLR 22/04 A3001 RMK AO2 SLP113 T02170044
Observed Flight Rules
Aug-14 @ 12:56 UTC
(47 minutes ago)
VFR
Clouds
  • Clear skies
Temperature Dewpoint
22°C / 72°F 4°C / 39°F
Humidity Altimeter Pressure
31% 30.01" Hg 1011.3 hPa